createdAt,value
2023-01-21T00:01:02.742Z,7.28
2023-01-21T00:03:30.629Z,7.17
2023-01-21T00:05:58.487Z,6.70
2023-01-21T00:08:26.574Z,7.13
2023-01-21T00:10:54.532Z,5.72
2023-01-21T00:13:22.315Z,6.73
2023-01-21T00:15:50.104Z,6.40
2023-01-21T00:18:20.442Z,6.00
2023-01-21T00:20:48.289Z,7.47
2023-01-21T00:23:16.118Z,7.07
2023-01-21T00:25:43.865Z,7.03
2023-01-21T00:28:11.614Z,6.90
2023-01-21T00:30:39.692Z,7.03
2023-01-21T00:33:07.437Z,6.10
2023-01-21T00:35:35.107Z,6.45
2023-01-21T00:38:02.811Z,7.77
2023-01-21T00:40:30.572Z,6.47
2023-01-21T00:42:58.310Z,7.47
2023-01-21T00:45:26.140Z,6.93
2023-01-21T00:47:53.905Z,7.18
2023-01-21T00:50:21.754Z,7.32
2023-01-21T00:52:49.450Z,7.87
2023-01-21T00:55:17.257Z,7.85
2023-01-21T00:57:45.046Z,7.25
2023-01-21T01:00:15.298Z,5.63
2023-01-21T01:02:43.265Z,6.43
2023-01-21T01:05:11.086Z,6.53
2023-01-21T01:07:41.303Z,6.85
2023-01-21T01:10:09.355Z,7.57
2023-01-21T01:12:37.039Z,6.70
2023-01-21T01:15:05.097Z,6.22
2023-01-21T01:17:32.950Z,7.03
2023-01-21T01:20:00.612Z,7.35
2023-01-21T01:22:28.455Z,6.70
2023-01-21T01:24:56.134Z,6.63
2023-01-21T01:27:23.861Z,7.23
2023-01-21T01:29:51.604Z,7.00
2023-01-21T01:32:19.362Z,7.72
2023-01-21T01:34:47.123Z,7.43
2023-01-21T01:37:14.857Z,6.53
2023-01-21T01:39:43.200Z,7.25
2023-01-21T01:42:15.921Z,7.40
2023-01-21T01:44:56.260Z,8.40
2023-01-21T01:47:24.759Z,7.47
2023-01-21T01:49:52.388Z,8.18
2023-01-21T01:52:20.170Z,7.27
2023-01-21T01:54:49.219Z,6.90
2023-01-21T01:57:17.295Z,6.82
2023-01-21T01:59:44.985Z,8.13
2023-01-21T02:02:13.751Z,6.82
2023-01-21T02:04:45.692Z,7.32
2023-01-21T02:07:13.451Z,8.27
2023-01-21T02:09:41.344Z,8.20
2023-01-21T02:12:09.140Z,8.25
2023-01-21T02:14:42.929Z,7.05
2023-01-21T02:17:22.846Z,7.33
2023-01-21T02:19:50.568Z,8.15
2023-01-21T02:22:30.646Z,8.48
2023-01-21T02:25:07.876Z,7.27
2023-01-21T02:27:55.849Z,7.78
2023-01-21T02:30:23.574Z,9.52
2023-01-21T02:32:51.297Z,10.10
2023-01-21T02:35:24.857Z,8.50
2023-01-21T02:37:55.692Z,8.43
2023-01-21T02:40:32.361Z,8.45
2023-01-21T02:43:04.251Z,7.53
2023-01-21T02:45:55.389Z,6.70
2023-01-21T02:48:29.231Z,7.03
2023-01-21T02:50:57.021Z,7.67
2023-01-21T02:53:29.878Z,7.28
2023-01-21T02:55:58.665Z,8.40
2023-01-21T02:58:28.578Z,8.00
2023-01-21T03:00:56.514Z,8.25
2023-01-21T03:03:41.424Z,6.97
2023-01-21T03:06:18.675Z,7.10
2023-01-21T03:08:51.201Z,7.00
2023-01-21T03:11:19.542Z,9.40
2023-01-21T03:14:05.831Z,8.18
2023-01-21T03:16:54.246Z,10.13
2023-01-21T03:19:21.954Z,10.38
2023-01-21T03:21:50.117Z,10.23
2023-01-21T03:24:17.873Z,11.97
2023-01-21T03:26:47.018Z,10.35
2023-01-21T03:29:15.842Z,7.68
2023-01-21T03:31:44.042Z,6.95
2023-01-21T03:34:12.706Z,6.67
2023-01-21T03:36:43.228Z,8.90
2023-01-21T03:39:22.717Z,8.27
2023-01-21T03:41:53.011Z,8.77
2023-01-21T03:44:20.735Z,8.45
2023-01-21T03:47:00.876Z,8.45
2023-01-21T03:49:28.632Z,8.23
2023-01-21T03:51:57.531Z,8.98
2023-01-21T03:54:25.280Z,7.72
2023-01-21T03:56:53.022Z,6.75
2023-01-21T03:59:20.816Z,7.13
2023-01-21T04:01:48.703Z,5.60
2023-01-21T04:04:16.504Z,5.45
2023-01-21T04:06:44.163Z,5.20
2023-01-21T04:09:11.968Z,7.72
2023-01-21T04:11:39.841Z,7.63
2023-01-21T04:14:07.653Z,5.80
2023-01-21T04:16:35.394Z,2.53
2023-01-21T04:19:03.231Z,4.72
2023-01-21T04:21:30.970Z,6.78
2023-01-21T04:23:58.734Z,7.03
2023-01-21T04:26:26.408Z,6.18
2023-01-21T04:28:54.183Z,7.15
2023-01-21T04:31:22.135Z,6.50
2023-01-21T04:33:49.994Z,6.07
2023-01-21T04:36:17.752Z,7.72
2023-01-21T04:38:45.453Z,6.63
2023-01-21T04:41:13.260Z,8.32
2023-01-21T04:43:40.954Z,7.63
2023-01-21T04:46:09.470Z,7.85
2023-01-21T04:48:40.132Z,7.37
2023-01-21T04:51:08.146Z,8.68
2023-01-21T04:53:35.911Z,9.48
2023-01-21T04:56:03.647Z,8.13
2023-01-21T04:58:31.438Z,7.47
2023-01-21T05:00:59.304Z,8.48
2023-01-21T05:03:28.035Z,9.87
2023-01-21T05:05:55.714Z,7.90
2023-01-21T05:08:23.448Z,8.10
2023-01-21T05:10:51.171Z,8.65
2023-01-21T05:13:20.807Z,8.17
2023-01-21T05:15:48.554Z,7.88
2023-01-21T05:18:16.326Z,8.38
2023-01-21T05:20:44.088Z,8.23
2023-01-21T05:23:11.971Z,8.43
2023-01-21T05:25:39.726Z,9.38
2023-01-21T05:28:09.197Z,7.50
2023-01-21T05:30:39.965Z,7.82
2023-01-21T05:33:08.141Z,8.48
2023-01-21T05:35:35.940Z,9.18
2023-01-21T05:38:04.694Z,7.70
2023-01-21T05:40:32.884Z,8.57
2023-01-21T05:43:00.559Z,8.13
2023-01-21T05:45:28.394Z,7.90
2023-01-21T05:47:56.089Z,7.95
2023-01-21T05:50:23.971Z,7.43
2023-01-21T05:52:51.747Z,8.00
2023-01-21T05:55:19.554Z,8.07
2023-01-21T05:57:47.334Z,9.20
2023-01-21T06:00:15.833Z,8.98
2023-01-21T06:02:44.085Z,8.97
2023-01-21T06:05:11.909Z,8.25
2023-01-21T06:07:39.692Z,8.32
2023-01-21T06:10:07.815Z,8.20
2023-01-21T06:12:35.552Z,8.45
2023-01-21T06:15:03.352Z,8.07
2023-01-21T06:17:31.053Z,8.07
2023-01-21T06:19:58.901Z,7.70
2023-01-21T06:22:26.598Z,7.45
2023-01-21T06:24:54.373Z,7.25
2023-01-21T06:27:22.095Z,7.07
2023-01-21T06:29:49.842Z,7.60
2023-01-21T06:32:19.916Z,7.93
2023-01-21T06:34:47.681Z,8.80
2023-01-21T06:37:15.403Z,8.07
2023-01-21T06:39:43.140Z,8.55
2023-01-21T06:42:10.903Z,8.03
2023-01-21T06:44:38.693Z,7.15
2023-01-21T06:47:06.534Z,7.22
2023-01-21T06:49:34.237Z,6.57
2023-01-21T06:52:02.215Z,8.03
2023-01-21T06:54:30.607Z,7.80
2023-01-21T06:56:58.441Z,7.07
2023-01-21T06:59:26.154Z,7.83
2023-01-21T07:01:54.034Z,6.60
2023-01-21T07:04:21.772Z,8.00
2023-01-21T07:06:50.652Z,7.27
2023-01-21T07:09:18.440Z,7.90
2023-01-21T07:11:46.304Z,9.27
2023-01-21T07:14:14.044Z,10.23
2023-01-21T07:16:41.804Z,10.33
2023-01-21T07:19:09.624Z,5.88
2023-01-21T07:21:37.361Z,6.93
2023-01-21T07:24:05.169Z,6.87
2023-01-21T07:26:36.325Z,7.60
2023-01-21T07:29:06.648Z,8.30
2023-01-21T07:31:34.742Z,8.27
2023-01-21T07:34:02.714Z,7.53
2023-01-21T07:36:30.422Z,8.10
2023-01-21T07:38:58.293Z,7.18
2023-01-21T07:41:26.081Z,6.77
2023-01-21T07:43:53.956Z,7.30
2023-01-21T07:46:21.934Z,8.55
2023-01-21T07:48:51.247Z,7.23
2023-01-21T07:51:19.626Z,7.68
2023-01-21T07:53:47.553Z,7.40
2023-01-21T07:56:16.362Z,6.77
2023-01-21T07:58:44.121Z,8.02
2023-01-21T08:01:12.387Z,7.43
2023-01-21T08:03:40.332Z,7.45
2023-01-21T08:06:08.218Z,7.23
2023-01-21T08:08:35.935Z,7.22
2023-01-21T08:11:03.758Z,7.03
2023-01-21T08:13:31.503Z,6.40
2023-01-21T08:15:59.360Z,7.35
2023-01-21T08:18:27.054Z,7.93
2023-01-21T08:20:58.256Z,8.53
2023-01-21T08:23:26.526Z,8.63
2023-01-21T08:25:54.528Z,9.38
2023-01-21T08:28:22.694Z,8.88
2023-01-21T08:30:50.626Z,9.70
2023-01-21T08:33:18.464Z,9.75
2023-01-21T08:35:46.230Z,9.93
2023-01-21T08:38:13.981Z,10.10
2023-01-21T08:40:41.780Z,9.63
2023-01-21T08:43:09.850Z,8.60
2023-01-21T08:45:37.657Z,7.97
2023-01-21T08:48:05.414Z,7.60
2023-01-21T08:50:35.494Z,7.63
2023-01-21T08:53:03.190Z,7.03
2023-01-21T08:55:30.944Z,6.73
2023-01-21T08:57:59.668Z,7.28
2023-01-21T09:00:28.531Z,7.82
2023-01-21T09:02:56.517Z,7.53
2023-01-21T09:05:24.258Z,6.63
2023-01-21T09:07:51.944Z,7.70
2023-01-21T09:10:38.892Z,9.17
2023-01-21T09:13:06.960Z,8.85
2023-01-21T09:15:43.503Z,9.70
2023-01-21T09:18:11.178Z,8.70
2023-01-21T09:20:39.909Z,8.57
2023-01-21T09:23:24.551Z,11.27
2023-01-21T09:25:59.599Z,9.50
2023-01-21T09:28:27.490Z,9.30
2023-01-21T09:30:59.212Z,9.90
2023-01-21T09:33:27.424Z,9.77
2023-01-21T09:35:55.866Z,9.10
2023-01-21T09:38:23.860Z,7.93
2023-01-21T09:40:51.617Z,7.88
2023-01-21T09:43:27.065Z,8.77
2023-01-21T09:45:55.211Z,8.57
2023-01-21T09:48:30.425Z,7.75
2023-01-21T09:50:58.249Z,7.43
2023-01-21T09:53:27.649Z,7.03
2023-01-21T09:55:55.355Z,6.80
2023-01-21T09:58:55.544Z,7.50
2023-01-21T10:01:24.697Z,6.63
2023-01-21T10:03:55.509Z,7.15
2023-01-21T10:06:26.437Z,6.47
2023-01-21T10:08:54.865Z,5.50
2023-01-21T10:11:51.966Z,5.43
2023-01-21T10:14:25.895Z,5.63
2023-01-21T10:17:04.672Z,7.13
2023-01-21T10:19:52.683Z,5.10
2023-01-21T10:22:21.697Z,4.80
2023-01-21T10:24:50.433Z,4.75
2023-01-21T10:27:19.671Z,4.57
2023-01-21T10:29:47.932Z,5.07
2023-01-21T10:32:17.103Z,4.18
2023-01-21T10:34:51.788Z,4.18
2023-01-21T10:37:31.522Z,4.20
2023-01-21T10:40:01.894Z,3.60
2023-01-21T10:42:32.679Z,4.10
2023-01-21T10:45:02.715Z,4.07
2023-01-21T10:47:48.119Z,4.22
2023-01-21T10:50:28.395Z,4.45
2023-01-21T10:52:56.080Z,4.53
2023-01-21T10:55:23.869Z,4.07
2023-01-21T10:57:54.533Z,4.32
2023-01-21T11:00:32.785Z,4.03
2023-01-21T11:03:05.388Z,3.60
2023-01-21T11:05:33.213Z,3.28
2023-01-21T11:08:01.149Z,2.72
2023-01-21T11:10:29.031Z,2.40
2023-01-21T11:12:56.909Z,2.88
2023-01-21T11:15:24.784Z,2.97
2023-01-21T11:17:59.780Z,2.30
2023-01-21T11:20:37.669Z,1.85
2023-01-21T11:23:06.197Z,2.33
2023-01-21T11:25:37.862Z,2.40
2023-01-21T11:28:06.012Z,1.87
2023-01-21T11:30:49.636Z,2.03
2023-01-21T11:33:26.255Z,2.17
2023-01-21T11:35:54.361Z,2.17
2023-01-21T11:38:43.313Z,2.00
2023-01-21T11:41:11.213Z,1.92
2023-01-21T11:44:08.209Z,2.00
2023-01-21T11:46:39.319Z,1.73
2023-01-21T11:49:09.799Z,1.83
2023-01-21T11:51:38.237Z,2.40
2023-01-21T11:54:09.595Z,2.60
2023-01-21T11:56:37.352Z,2.30
2023-01-21T11:59:25.446Z,2.15
2023-01-21T12:01:54.145Z,1.50
2023-01-21T12:04:22.000Z,2.30
2023-01-21T12:06:53.768Z,1.83
2023-01-21T12:09:21.615Z,1.50
2023-01-21T12:11:51.051Z,2.03
2023-01-21T12:14:24.966Z,1.95
2023-01-21T12:16:52.634Z,1.77
2023-01-21T12:19:26.354Z,2.23
2023-01-21T12:21:56.825Z,2.05
2023-01-21T12:24:35.120Z,1.98
2023-01-21T12:27:02.811Z,1.93
2023-01-21T12:29:39.463Z,2.55
2023-01-21T12:32:12.992Z,2.38
2023-01-21T12:34:44.936Z,1.53
2023-01-21T12:37:14.235Z,1.40
2023-01-21T12:39:46.694Z,1.48
2023-01-21T12:42:23.714Z,1.60
2023-01-21T12:44:55.278Z,1.40
2023-01-21T12:47:28.989Z,1.20
2023-01-21T12:49:59.680Z,1.10
2023-01-21T12:52:34.751Z,1.20
2023-01-21T12:55:05.904Z,1.15
2023-01-21T12:57:42.965Z,1.00
2023-01-21T13:00:21.682Z,0.90
2023-01-21T13:02:49.555Z,1.45
2023-01-21T13:05:19.238Z,1.52
2023-01-21T13:07:48.604Z,1.90
2023-01-21T13:10:20.597Z,1.77
2023-01-21T13:12:51.026Z,1.65
2023-01-21T13:15:21.041Z,2.05
2023-01-21T13:17:53.322Z,2.00
2023-01-21T13:20:21.774Z,1.90
2023-01-21T13:23:08.570Z,1.95
2023-01-21T13:25:44.573Z,1.70
2023-01-21T13:28:12.267Z,2.08
2023-01-21T13:30:46.196Z,2.03
2023-01-21T13:33:13.867Z,1.80
2023-01-21T13:35:44.088Z,1.87
2023-01-21T13:38:30.643Z,1.70
2023-01-21T13:41:01.367Z,1.70
2023-01-21T13:43:54.892Z,1.57
2023-01-21T13:46:35.340Z,1.80
2023-01-21T13:49:06.201Z,1.70
2023-01-21T13:51:40.033Z,1.73
2023-01-21T13:54:23.019Z,2.10
2023-01-21T13:56:50.762Z,2.00
2023-01-21T13:59:21.331Z,1.70
2023-01-21T14:01:49.078Z,1.97
2023-01-21T14:04:21.187Z,2.08
2023-01-21T14:07:05.707Z,1.70
2023-01-21T14:09:38.448Z,1.53
2023-01-21T14:12:08.511Z,1.65
2023-01-21T14:14:40.929Z,1.75
2023-01-21T14:17:14.939Z,2.30
2023-01-21T14:19:42.720Z,2.10
2023-01-21T14:22:22.688Z,2.40
2023-01-21T14:24:54.699Z,2.22
2023-01-21T14:27:28.512Z,2.00
2023-01-21T14:30:16.794Z,1.90
2023-01-21T14:32:50.041Z,1.80
2023-01-21T14:35:21.106Z,1.87
2023-01-21T14:38:07.517Z,2.10
2023-01-21T14:40:35.821Z,1.90
2023-01-21T14:43:03.541Z,1.93
2023-01-21T14:45:50.449Z,2.08
2023-01-21T14:48:30.198Z,2.28
2023-01-21T14:51:19.023Z,1.80
2023-01-21T14:53:47.772Z,2.20
2023-01-21T14:56:23.177Z,2.75
2023-01-21T14:58:52.605Z,2.20
2023-01-21T15:01:27.902Z,2.20
2023-01-21T15:03:56.714Z,2.10
2023-01-21T15:06:24.565Z,2.38
2023-01-21T15:08:53.276Z,2.60
2023-01-21T15:11:24.938Z,2.40
2023-01-21T15:14:13.100Z,2.17
2023-01-21T15:16:41.633Z,2.25
2023-01-21T15:19:09.471Z,2.20
2023-01-21T15:21:43.690Z,2.15
2023-01-21T15:24:23.393Z,2.00
2023-01-21T15:27:09.526Z,1.90
2023-01-21T15:29:37.914Z,1.83
2023-01-21T15:32:24.268Z,1.80
2023-01-21T15:34:52.891Z,2.03
2023-01-21T15:37:24.517Z,2.40
2023-01-21T15:39:56.919Z,2.63
2023-01-21T15:42:50.913Z,1.90
2023-01-21T15:45:23.883Z,1.83
2023-01-21T15:47:55.249Z,2.05
2023-01-21T15:50:24.070Z,1.85
2023-01-21T15:53:10.394Z,1.67
2023-01-21T15:55:53.228Z,1.35
2023-01-21T15:58:21.852Z,1.10
2023-01-21T16:01:09.970Z,1.60
2023-01-21T16:03:39.425Z,0.98
2023-01-21T16:06:07.168Z,1.10
2023-01-21T16:08:39.679Z,1.15
2023-01-21T16:11:19.885Z,0.70
2023-01-21T16:14:11.651Z,0.80
2023-01-21T16:16:59.046Z,0.98
2023-01-21T16:19:31.211Z,0.90
2023-01-21T16:22:00.015Z,1.00
2023-01-21T16:24:28.816Z,1.05
2023-01-21T16:26:58.635Z,1.00
2023-01-21T16:29:26.400Z,0.88
2023-01-21T16:32:04.171Z,1.10
2023-01-21T16:34:31.975Z,1.52
2023-01-21T16:36:59.834Z,1.37
2023-01-21T16:39:27.640Z,1.02
2023-01-21T16:42:02.579Z,1.08
2023-01-21T16:44:30.473Z,1.43
2023-01-21T16:46:58.271Z,1.10
2023-01-21T16:49:26.102Z,1.50
2023-01-21T16:51:56.554Z,1.07
2023-01-21T16:54:25.237Z,1.13
2023-01-21T16:56:52.931Z,1.40
2023-01-21T16:59:21.220Z,1.30
2023-01-21T17:01:49.423Z,1.30
2023-01-21T17:04:17.357Z,1.27
2023-01-21T17:06:45.425Z,1.60
2023-01-21T17:09:29.555Z,1.57
2023-01-21T17:11:57.663Z,2.25
2023-01-21T17:14:26.282Z,2.00
2023-01-21T17:16:54.438Z,1.80
2023-01-21T17:19:29.839Z,1.80
2023-01-21T17:21:59.253Z,1.90
2023-01-21T17:24:28.503Z,1.75
2023-01-21T17:26:57.861Z,2.00
2023-01-21T17:29:29.464Z,1.85
2023-01-21T17:31:58.141Z,1.80
2023-01-21T17:34:30.304Z,2.23
2023-01-21T17:36:58.097Z,1.88
2023-01-21T17:39:44.489Z,2.72
2023-01-21T17:42:21.163Z,2.07
2023-01-21T17:44:55.692Z,2.33
2023-01-21T17:47:54.176Z,2.05
2023-01-21T17:50:25.863Z,1.60
2023-01-21T17:53:01.755Z,2.40
2023-01-21T17:55:31.013Z,2.35
2023-01-21T17:58:01.007Z,2.50
2023-01-21T18:00:33.131Z,2.30
2023-01-21T18:03:00.936Z,2.60
2023-01-21T18:05:29.283Z,2.05
2023-01-21T18:07:57.013Z,2.20
2023-01-21T18:10:28.300Z,2.30
2023-01-21T18:12:58.057Z,2.22
2023-01-21T18:15:27.750Z,2.72
2023-01-21T18:18:02.023Z,2.17
2023-01-21T18:20:30.053Z,2.22
2023-01-21T18:22:58.312Z,1.98
2023-01-21T18:25:26.684Z,2.57
2023-01-21T18:27:58.707Z,2.45
2023-01-21T18:30:27.439Z,2.80
2023-01-21T18:32:55.344Z,2.80
2023-01-21T18:35:24.020Z,2.90
2023-01-21T18:38:21.977Z,3.00
2023-01-21T18:41:10.138Z,2.92
2023-01-21T18:43:58.089Z,3.30
2023-01-21T18:46:46.150Z,3.38
2023-01-21T18:49:34.142Z,2.53
2023-01-21T18:52:22.124Z,2.60
2023-01-21T18:55:10.485Z,2.50
2023-01-21T18:57:58.972Z,2.25
2023-01-21T19:00:50.505Z,2.00
2023-01-21T19:03:39.659Z,2.60
2023-01-21T19:06:27.774Z,2.78
2023-01-21T19:09:20.061Z,2.72
2023-01-21T19:12:10.091Z,2.63
2023-01-21T19:15:02.234Z,2.65
2023-01-21T19:17:50.292Z,3.22
2023-01-21T19:20:44.442Z,2.70
2023-01-21T19:23:32.417Z,2.72
2023-01-21T19:26:23.507Z,3.00
2023-01-21T19:29:21.693Z,2.57
2023-01-21T19:32:14.735Z,2.88
2023-01-21T19:34:57.992Z,3.17
2023-01-21T19:37:26.090Z,2.53
2023-01-21T19:39:53.871Z,2.90
2023-01-21T19:42:21.733Z,3.30
2023-01-21T19:44:49.519Z,2.50
2023-01-21T19:47:21.882Z,2.30
2023-01-21T19:49:51.293Z,2.00
2023-01-21T19:52:19.228Z,2.50
2023-01-21T19:54:48.428Z,2.13
2023-01-21T19:57:17.972Z,2.13
2023-01-21T19:59:45.835Z,2.10
2023-01-21T20:02:13.783Z,2.78
2023-01-21T20:04:41.582Z,2.90
2023-01-21T20:07:18.863Z,2.80
2023-01-21T20:09:49.876Z,2.00
2023-01-21T20:12:17.912Z,2.67
2023-01-21T20:14:45.692Z,2.40
2023-01-21T20:17:16.725Z,1.90
2023-01-21T20:19:44.517Z,2.50
2023-01-21T20:22:13.471Z,1.75
2023-01-21T20:24:45.568Z,1.42
2023-01-21T20:27:14.292Z,1.75
2023-01-21T20:29:49.505Z,1.93
2023-01-21T20:32:23.815Z,1.60
2023-01-21T20:34:51.643Z,1.23
2023-01-21T20:37:20.807Z,1.70
2023-01-21T20:39:51.819Z,2.20
2023-01-21T20:42:19.563Z,1.90
2023-01-21T20:44:47.394Z,2.30
2023-01-21T20:47:16.691Z,2.30
2023-01-21T20:49:44.561Z,1.98
2023-01-21T20:52:12.429Z,1.67
2023-01-21T20:54:40.495Z,1.60
2023-01-21T20:57:13.657Z,1.40
2023-01-21T20:59:41.485Z,1.42
2023-01-21T21:02:12.482Z,1.30
2023-01-21T21:04:40.631Z,1.20
2023-01-21T21:07:11.403Z,0.90
2023-01-21T21:09:39.940Z,1.47
2023-01-21T21:12:07.779Z,1.70
2023-01-21T21:14:35.475Z,1.48
2023-01-21T21:17:03.297Z,1.45
2023-01-21T21:19:31.017Z,1.10
2023-01-21T21:21:58.870Z,0.90
2023-01-21T21:24:30.026Z,0.93
2023-01-21T21:26:57.934Z,0.70
2023-01-21T21:29:25.725Z,1.00
2023-01-21T21:31:53.543Z,0.95
2023-01-21T21:34:24.093Z,1.00
2023-01-21T21:36:51.865Z,0.63
2023-01-21T21:39:19.970Z,0.77
2023-01-21T21:42:06.562Z,0.88
2023-01-21T21:44:34.424Z,0.70
2023-01-21T21:47:20.953Z,0.90
2023-01-21T21:49:48.750Z,0.95
2023-01-21T21:52:17.906Z,1.00
2023-01-21T21:54:45.771Z,0.93
2023-01-21T21:57:14.279Z,0.70
2023-01-21T21:59:42.990Z,1.13
2023-01-21T22:02:11.629Z,1.20
2023-01-21T22:04:39.544Z,0.77
2023-01-21T22:07:07.381Z,1.05
2023-01-21T22:09:35.221Z,0.63
2023-01-21T22:12:02.977Z,1.00
2023-01-21T22:14:30.843Z,1.30
2023-01-21T22:16:58.742Z,1.10
2023-01-21T22:19:26.763Z,1.10
2023-01-21T22:21:54.605Z,1.40
2023-01-21T22:24:22.371Z,1.60
2023-01-21T22:26:50.155Z,1.85
2023-01-21T22:29:17.932Z,1.27
2023-01-21T22:31:45.899Z,1.02
2023-01-21T22:34:13.748Z,1.37
2023-01-21T22:36:47.136Z,1.00
2023-01-21T22:39:14.922Z,1.80
2023-01-21T22:41:45.863Z,1.33
2023-01-21T22:44:13.612Z,1.33
2023-01-21T22:46:43.807Z,1.40
2023-01-21T22:49:11.937Z,1.73
2023-01-21T22:51:39.704Z,1.63
2023-01-21T22:54:07.784Z,1.40
2023-01-21T22:56:51.180Z,1.65
2023-01-21T22:59:19.736Z,1.37
2023-01-21T23:01:48.938Z,1.70
2023-01-21T23:04:17.910Z,1.52
2023-01-21T23:06:48.983Z,1.60
2023-01-21T23:09:16.901Z,1.65
2023-01-21T23:11:45.315Z,1.55
2023-01-21T23:14:13.234Z,1.10
2023-01-21T23:16:41.058Z,1.58
2023-01-21T23:19:09.150Z,1.30
2023-01-21T23:21:38.525Z,1.02
2023-01-21T23:24:06.964Z,1.40
2023-01-21T23:26:34.801Z,1.45
2023-01-21T23:29:02.547Z,0.98
2023-01-21T23:31:30.559Z,1.30
2023-01-21T23:33:58.864Z,1.30
2023-01-21T23:36:26.667Z,1.08
2023-01-21T23:38:54.370Z,1.50
2023-01-21T23:41:23.757Z,1.40
2023-01-21T23:43:51.453Z,1.50
2023-01-21T23:46:22.476Z,1.52
2023-01-21T23:48:50.218Z,1.70
2023-01-21T23:51:18.945Z,1.40
2023-01-21T23:53:49.151Z,1.75
2023-01-21T23:56:17.981Z,1.50
2023-01-21T23:58:45.697Z,1.92
